sensor_id;sensor_type;location;lat;lon;timestamp;temperature;humidity
22337;DHT22;14992;50.844;4.418;2024-02-16T00:00:14;15.10;99.90
22337;DHT22;14992;50.844;4.418;2024-02-16T00:02:44;15.00;99.90
22337;DHT22;14992;50.844;4.418;2024-02-16T00:05:14;15.10;99.90
22337;DHT22;14992;50.844;4.418;2024-02-16T00:07:42;15.00;99.90
22337;DHT22;14992;50.844;4.418;2024-02-16T00:10:11;15.00;99.90
22337;DHT22;14992;50.844;4.418;2024-02-16T00:12:40;14.90;99.90
22337;DHT22;14992;50.844;4.418;2024-02-16T00:15:11;14.90;99.90
22337;DHT22;14992;50.844;4.418;2024-02-16T00:17:40;14.80;99.90
22337;DHT22;14992;50.844;4.418;2024-02-16T00:20:09;14.90;99.90
22337;DHT22;14992;50.844;4.418;2024-02-16T00:22:40;14.90;99.90
22337;DHT22;14992;50.844;4.418;2024-02-16T00:25:09;14.80;99.90
22337;DHT22;14992;50.844;4.418;2024-02-16T00:27:38;14.90;99.90
22337;DHT22;14992;50.844;4.418;2024-02-16T00:30:08;14.90;99.90
22337;DHT22;14992;50.844;4.418;2024-02-16T00:32:40;14.90;99.90
22337;DHT22;14992;50.844;4.418;2024-02-16T00:35:09;14.90;99.90
22337;DHT22;14992;50.844;4.418;2024-02-16T00:37:39;14.80;99.90
22337;DHT22;14992;50.844;4.418;2024-02-16T00:40:08;14.80;99.90
22337;DHT22;14992;50.844;4.418;2024-02-16T00:42:37;14.80;99.90
22337;DHT22;14992;50.844;4.418;2024-02-16T00:45:07;14.80;99.90
22337;DHT22;14992;50.844;4.418;2024-02-16T00:47:36;14.80;99.90
22337;DHT22;14992;50.844;4.418;2024-02-16T00:50:07;14.80;99.90
22337;DHT22;14992;50.844;4.418;2024-02-16T00:52:37;14.70;99.90
22337;DHT22;14992;50.844;4.418;2024-02-16T00:55:08;14.70;99.90
22337;DHT22;14992;50.844;4.418;2024-02-16T00:57:37;14.60;99.90
22337;DHT22;14992;50.844;4.418;2024-02-16T01:00:07;14.70;99.90
22337;DHT22;14992;50.844;4.418;2024-02-16T01:02:37;14.70;99.90
22337;DHT22;14992;50.844;4.418;2024-02-16T01:05:08;14.70;99.90
22337;DHT22;14992;50.844;4.418;2024-02-16T01:07:38;14.70;99.90
22337;DHT22;14992;50.844;4.418;2024-02-16T01:10:07;14.70;99.90
22337;DHT22;14992;50.844;4.418;2024-02-16T01:12:36;14.70;99.90
22337;DHT22;14992;50.844;4.418;2024-02-16T01:15:06;14.60;99.90
22337;DHT22;14992;50.844;4.418;2024-02-16T01:17:35;14.60;99.90
22337;DHT22;14992;50.844;4.418;2024-02-16T01:20:07;14.60;99.90
22337;DHT22;14992;50.844;4.418;2024-02-16T01:22:39;14.60;99.90
22337;DHT22;14992;50.844;4.418;2024-02-16T01:25:08;14.70;99.90
22337;DHT22;14992;50.844;4.418;2024-02-16T01:27:37;14.70;99.90
22337;DHT22;14992;50.844;4.418;2024-02-16T01:30:09;14.70;99.90
22337;DHT22;14992;50.844;4.418;2024-02-16T01:32:38;14.80;99.90
22337;DHT22;14992;50.844;4.418;2024-02-16T01:35:09;14.80;99.90
22337;DHT22;14992;50.844;4.418;2024-02-16T01:37:38;14.70;99.90
22337;DHT22;14992;50.844;4.418;2024-02-16T01:40:09;14.70;99.90
22337;DHT22;14992;50.844;4.418;2024-02-16T01:42:42;14.80;99.90
22337;DHT22;14992;50.844;4.418;2024-02-16T01:45:11;14.80;99.90
22337;DHT22;14992;50.844;4.418;2024-02-16T01:47:42;14.90;99.90
22337;DHT22;14992;50.844;4.418;2024-02-16T01:50:17;14.90;99.90
22337;DHT22;14992;50.844;4.418;2024-02-16T01:52:47;14.90;99.90
22337;DHT22;14992;50.844;4.418;2024-02-16T01:55:16;14.90;99.90
22337;DHT22;14992;50.844;4.418;2024-02-16T01:57:46;14.90;99.90
22337;DHT22;14992;50.844;4.418;2024-02-16T02:00:16;14.80;99.90
22337;DHT22;14992;50.844;4.418;2024-02-16T02:02:46;14.80;99.90
22337;DHT22;14992;50.844;4.418;2024-02-16T02:05:17;14.80;99.90
22337;DHT22;14992;50.844;4.418;2024-02-16T02:07:46;14.80;99.90
22337;DHT22;14992;50.844;4.418;2024-02-16T02:10:15;14.80;99.90
22337;DHT22;14992;50.844;4.418;2024-02-16T02:12:44;14.80;99.90
22337;DHT22;14992;50.844;4.418;2024-02-16T02:15:13;14.80;99.90
22337;DHT22;14992;50.844;4.418;2024-02-16T02:17:42;14.80;99.90
22337;DHT22;14992;50.844;4.418;2024-02-16T02:20:11;14.80;99.90
22337;DHT22;14992;50.844;4.418;2024-02-16T02:22:42;14.80;99.90
22337;DHT22;14992;50.844;4.418;2024-02-16T02:25:11;14.80;99.90
22337;DHT22;14992;50.844;4.418;2024-02-16T02:27:40;14.80;99.90
22337;DHT22;14992;50.844;4.418;2024-02-16T02:30:09;14.80;99.90
22337;DHT22;14992;50.844;4.418;2024-02-16T02:32:38;14.80;99.90
22337;DHT22;14992;50.844;4.418;2024-02-16T02:35:10;14.80;99.90
22337;DHT22;14992;50.844;4.418;2024-02-16T02:37:43;14.80;99.90
22337;DHT22;14992;50.844;4.418;2024-02-16T02:40:12;14.90;99.90
22337;DHT22;14992;50.844;4.418;2024-02-16T02:42:41;14.80;99.90
22337;DHT22;14992;50.844;4.418;2024-02-16T02:45:10;14.90;99.90
22337;DHT22;14992;50.844;4.418;2024-02-16T02:47:39;14.90;99.90
22337;DHT22;14992;50.844;4.418;2024-02-16T02:50:09;14.90;99.90
22337;DHT22;14992;50.844;4.418;2024-02-16T02:52:37;14.90;99.90
22337;DHT22;14992;50.844;4.418;2024-02-16T02:55:08;15.00;99.90
22337;DHT22;14992;50.844;4.418;2024-02-16T02:57:37;15.10;99.90
22337;DHT22;14992;50.844;4.418;2024-02-16T03:00:07;15.10;99.90
22337;DHT22;14992;50.844;4.418;2024-02-16T03:02:39;15.10;99.90
22337;DHT22;14992;50.844;4.418;2024-02-16T03:05:09;15.10;99.90
22337;DHT22;14992;50.844;4.418;2024-02-16T03:07:38;15.10;99.90
22337;DHT22;14992;50.844;4.418;2024-02-16T03:10:09;15.00;99.90
22337;DHT22;14992;50.844;4.418;2024-02-16T03:12:38;15.10;99.90
22337;DHT22;14992;50.844;4.418;2024-02-16T03:15:08;15.10;99.90
22337;DHT22;14992;50.844;4.418;2024-02-16T03:17:37;15.10;99.90
22337;DHT22;14992;50.844;4.418;2024-02-16T03:20:06;15.00;99.90
22337;DHT22;14992;50.844;4.418;2024-02-16T03:22:36;15.00;99.90
22337;DHT22;14992;50.844;4.418;2024-02-16T03:25:05;15.00;99.90
22337;DHT22;14992;50.844;4.418;2024-02-16T03:27:35;15.00;99.90
22337;DHT22;14992;50.844;4.418;2024-02-16T03:30:06;14.90;99.90
22337;DHT22;14992;50.844;4.418;2024-02-16T03:32:34;14.90;99.90
22337;DHT22;14992;50.844;4.418;2024-02-16T03:35:04;14.90;99.90
22337;DHT22;14992;50.844;4.418;2024-02-16T03:37:33;14.80;99.90
22337;DHT22;14992;50.844;4.418;2024-02-16T03:40:06;14.80;99.90
22337;DHT22;14992;50.844;4.418;2024-02-16T03:42:37;14.90;99.90
22337;DHT22;14992;50.844;4.418;2024-02-16T03:45:06;14.90;99.90
22337;DHT22;14992;50.844;4.418;2024-02-16T03:47:35;14.90;99.90
22337;DHT22;14992;50.844;4.418;2024-02-16T03:50:05;14.90;99.90
22337;DHT22;14992;50.844;4.418;2024-02-16T03:52:34;15.00;99.90
22337;DHT22;14992;50.844;4.418;2024-02-16T03:55:04;15.10;99.90
22337;DHT22;14992;50.844;4.418;2024-02-16T03:57:33;15.00;99.90
22337;DHT22;14992;50.844;4.418;2024-02-16T04:00:04;15.00;99.90
22337;DHT22;14992;50.844;4.418;2024-02-16T04:02:43;15.00;99.90
22337;DHT22;14992;50.844;4.418;2024-02-16T04:05:13;15.00;99.90
22337;DHT22;14992;50.844;4.418;2024-02-16T04:07:41;15.00;99.90
22337;DHT22;14992;50.844;4.418;2024-02-16T04:10:10;15.10;99.90
22337;DHT22;14992;50.844;4.418;2024-02-16T04:12:39;15.10;99.90
22337;DHT22;14992;50.844;4.418;2024-02-16T04:15:09;15.10;99.90
22337;DHT22;14992;50.844;4.418;2024-02-16T04:17:39;15.20;99.90
22337;DHT22;14992;50.844;4.418;2024-02-16T04:20:08;15.30;99.90
22337;DHT22;14992;50.844;4.418;2024-02-16T04:22:38;15.20;99.90
22337;DHT22;14992;50.844;4.418;2024-02-16T04:25:07;15.20;99.90
22337;DHT22;14992;50.844;4.418;2024-02-16T04:27:36;15.10;99.90
22337;DHT22;14992;50.844;4.418;2024-02-16T04:30:06;15.00;99.90
22337;DHT22;14992;50.844;4.418;2024-02-16T04:32:36;15.00;99.90
22337;DHT22;14992;50.844;4.418;2024-02-16T04:35:05;14.90;99.90
22337;DHT22;14992;50.844;4.418;2024-02-16T04:37:39;15.00;99.90
22337;DHT22;14992;50.844;4.418;2024-02-16T04:40:08;15.00;99.90
22337;DHT22;14992;50.844;4.418;2024-02-16T04:42:40;15.00;99.90
22337;DHT22;14992;50.844;4.418;2024-02-16T04:45:11;15.10;99.90
22337;DHT22;14992;50.844;4.418;2024-02-16T04:47:42;15.10;99.90
22337;DHT22;14992;50.844;4.418;2024-02-16T04:50:10;15.20;99.90
22337;DHT22;14992;50.844;4.418;2024-02-16T04:52:42;15.30;99.90
22337;DHT22;14992;50.844;4.418;2024-02-16T04:55:11;15.30;99.90
22337;DHT22;14992;50.844;4.418;2024-02-16T04:57:40;15.30;99.90
22337;DHT22;14992;50.844;4.418;2024-02-16T05:00:10;15.30;99.90
22337;DHT22;14992;50.844;4.418;2024-02-16T05:02:39;15.30;99.90
22337;DHT22;14992;50.844;4.418;2024-02-16T05:05:10;15.30;99.90
22337;DHT22;14992;50.844;4.418;2024-02-16T05:07:39;15.30;99.90
22337;DHT22;14992;50.844;4.418;2024-02-16T05:10:09;15.20;99.90
22337;DHT22;14992;50.844;4.418;2024-02-16T05:12:38;15.30;99.90
22337;DHT22;14992;50.844;4.418;2024-02-16T05:15:07;15.20;99.90
22337;DHT22;14992;50.844;4.418;2024-02-16T05:17:36;15.20;99.90
22337;DHT22;14992;50.844;4.418;2024-02-16T05:20:11;15.20;99.90
22337;DHT22;14992;50.844;4.418;2024-02-16T05:22:43;15.20;99.90
22337;DHT22;14992;50.844;4.418;2024-02-16T05:25:13;15.20;99.90
22337;DHT22;14992;50.844;4.418;2024-02-16T05:27:42;15.20;99.90
22337;DHT22;14992;50.844;4.418;2024-02-16T05:30:12;15.20;99.90
22337;DHT22;14992;50.844;4.418;2024-02-16T05:32:43;15.30;99.90
22337;DHT22;14992;50.844;4.418;2024-02-16T05:35:14;15.30;99.90
22337;DHT22;14992;50.844;4.418;2024-02-16T05:37:45;15.30;99.90
22337;DHT22;14992;50.844;4.418;2024-02-16T05:40:16;15.40;99.90
22337;DHT22;14992;50.844;4.418;2024-02-16T05:42:52;15.40;99.90
22337;DHT22;14992;50.844;4.418;2024-02-16T05:45:21;15.40;99.90
22337;DHT22;14992;50.844;4.418;2024-02-16T05:47:50;15.30;99.90
22337;DHT22;14992;50.844;4.418;2024-02-16T05:50:21;15.30;99.90
22337;DHT22;14992;50.844;4.418;2024-02-16T05:52:51;15.40;99.90
22337;DHT22;14992;50.844;4.418;2024-02-16T05:55:20;15.30;99.90
22337;DHT22;14992;50.844;4.418;2024-02-16T05:57:48;15.20;99.90
22337;DHT22;14992;50.844;4.418;2024-02-16T06:00:18;15.20;99.90
22337;DHT22;14992;50.844;4.418;2024-02-16T06:02:49;15.20;99.90
22337;DHT22;14992;50.844;4.418;2024-02-16T06:05:18;15.20;99.90
22337;DHT22;14992;50.844;4.418;2024-02-16T06:07:49;15.20;99.90
22337;DHT22;14992;50.844;4.418;2024-02-16T06:10:17;15.20;99.90
22337;DHT22;14992;50.844;4.418;2024-02-16T06:12:46;15.30;99.90
22337;DHT22;14992;50.844;4.418;2024-02-16T06:15:15;15.30;99.90
22337;DHT22;14992;50.844;4.418;2024-02-16T06:17:44;15.30;99.90
22337;DHT22;14992;50.844;4.418;2024-02-16T06:20:13;15.20;99.90
22337;DHT22;14992;50.844;4.418;2024-02-16T06:22:46;15.20;99.90
22337;DHT22;14992;50.844;4.418;2024-02-16T06:25:16;15.10;99.90
22337;DHT22;14992;50.844;4.418;2024-02-16T06:27:45;15.10;99.90
22337;DHT22;14992;50.844;4.418;2024-02-16T06:30:14;15.00;99.90
22337;DHT22;14992;50.844;4.418;2024-02-16T06:32:43;15.00;99.90
22337;DHT22;14992;50.844;4.418;2024-02-16T06:35:12;15.00;99.90
22337;DHT22;14992;50.844;4.418;2024-02-16T06:37:42;14.90;99.90
22337;DHT22;14992;50.844;4.418;2024-02-16T06:40:11;14.80;99.90
22337;DHT22;14992;50.844;4.418;2024-02-16T06:42:42;14.80;99.90
22337;DHT22;14992;50.844;4.418;2024-02-16T06:45:11;14.80;99.90
22337;DHT22;14992;50.844;4.418;2024-02-16T06:47:40;14.80;99.90
22337;DHT22;14992;50.844;4.418;2024-02-16T06:50:09;14.70;99.90
22337;DHT22;14992;50.844;4.418;2024-02-16T06:52:38;14.70;99.90
22337;DHT22;14992;50.844;4.418;2024-02-16T06:55:08;14.80;99.90
22337;DHT22;14992;50.844;4.418;2024-02-16T06:57:36;14.90;99.90
22337;DHT22;14992;50.844;4.418;2024-02-16T07:00:08;14.90;99.90
22337;DHT22;14992;50.844;4.418;2024-02-16T07:02:37;14.90;99.90
22337;DHT22;14992;50.844;4.418;2024-02-16T07:05:08;14.90;99.90
22337;DHT22;14992;50.844;4.418;2024-02-16T07:07:38;14.90;99.90
22337;DHT22;14992;50.844;4.418;2024-02-16T07:10:07;14.80;99.90
22337;DHT22;14992;50.844;4.418;2024-02-16T07:12:41;14.80;99.90
22337;DHT22;14992;50.844;4.418;2024-02-16T07:15:11;14.80;99.90
22337;DHT22;14992;50.844;4.418;2024-02-16T07:17:41;14.80;99.90
22337;DHT22;14992;50.844;4.418;2024-02-16T07:20:11;14.80;99.90
22337;DHT22;14992;50.844;4.418;2024-02-16T07:22:43;14.80;99.90
22337;DHT22;14992;50.844;4.418;2024-02-16T07:25:13;14.90;99.90
22337;DHT22;14992;50.844;4.418;2024-02-16T07:27:42;14.90;99.90
22337;DHT22;14992;50.844;4.418;2024-02-16T07:30:13;14.90;99.90
22337;DHT22;14992;50.844;4.418;2024-02-16T07:32:50;14.90;99.90
22337;DHT22;14992;50.844;4.418;2024-02-16T07:35:20;14.90;99.90
22337;DHT22;14992;50.844;4.418;2024-02-16T07:37:51;14.90;99.90
22337;DHT22;14992;50.844;4.418;2024-02-16T07:40:21;14.90;99.90
22337;DHT22;14992;50.844;4.418;2024-02-16T07:42:50;14.90;99.90
22337;DHT22;14992;50.844;4.418;2024-02-16T07:45:21;15.00;99.90
22337;DHT22;14992;50.844;4.418;2024-02-16T07:47:50;15.00;99.90
22337;DHT22;14992;50.844;4.418;2024-02-16T07:50:19;15.00;99.90
22337;DHT22;14992;50.844;4.418;2024-02-16T07:52:49;14.90;99.90
22337;DHT22;14992;50.844;4.418;2024-02-16T07:55:18;15.00;99.90
22337;DHT22;14992;50.844;4.418;2024-02-16T07:57:48;15.00;99.90
22337;DHT22;14992;50.844;4.418;2024-02-16T08:00:19;15.00;99.90
22337;DHT22;14992;50.844;4.418;2024-02-16T08:02:48;15.10;99.90
22337;DHT22;14992;50.844;4.418;2024-02-16T08:05:17;15.10;99.90
22337;DHT22;14992;50.844;4.418;2024-02-16T08:07:47;15.10;99.90
22337;DHT22;14992;50.844;4.418;2024-02-16T08:10:19;15.10;99.90
22337;DHT22;14992;50.844;4.418;2024-02-16T08:12:49;15.10;99.90
22337;DHT22;14992;50.844;4.418;2024-02-16T08:15:19;15.20;99.90
22337;DHT22;14992;50.844;4.418;2024-02-16T08:17:52;15.30;99.90
22337;DHT22;14992;50.844;4.418;2024-02-16T08:20:22;15.20;99.90
22337;DHT22;14992;50.844;4.418;2024-02-16T08:22:51;15.20;99.90
22337;DHT22;14992;50.844;4.418;2024-02-16T08:25:19;15.20;99.90
22337;DHT22;14992;50.844;4.418;2024-02-16T08:27:49;15.20;99.90
22337;DHT22;14992;50.844;4.418;2024-02-16T08:30:20;15.30;99.90
22337;DHT22;14992;50.844;4.418;2024-02-16T08:32:49;15.20;99.90
22337;DHT22;14992;50.844;4.418;2024-02-16T08:35:19;15.10;99.90
22337;DHT22;14992;50.844;4.418;2024-02-16T08:37:47;15.10;99.90
22337;DHT22;14992;50.844;4.418;2024-02-16T08:40:16;15.00;99.90
22337;DHT22;14992;50.844;4.418;2024-02-16T08:42:45;14.90;99.90
22337;DHT22;14992;50.844;4.418;2024-02-16T08:45:15;15.00;99.90
22337;DHT22;14992;50.844;4.418;2024-02-16T08:47:47;14.90;99.90
22337;DHT22;14992;50.844;4.418;2024-02-16T08:50:19;14.90;99.90
22337;DHT22;14992;50.844;4.418;2024-02-16T08:52:48;14.80;99.90
22337;DHT22;14992;50.844;4.418;2024-02-16T08:55:17;14.80;99.90
22337;DHT22;14992;50.844;4.418;2024-02-16T08:57:46;14.90;99.90
22337;DHT22;14992;50.844;4.418;2024-02-16T09:00:15;15.00;99.90
22337;DHT22;14992;50.844;4.418;2024-02-16T09:02:44;15.00;99.90
22337;DHT22;14992;50.844;4.418;2024-02-16T09:05:16;14.90;99.90
22337;DHT22;14992;50.844;4.418;2024-02-16T09:07:44;14.90;99.90
22337;DHT22;14992;50.844;4.418;2024-02-16T09:10:14;15.00;99.90
22337;DHT22;14992;50.844;4.418;2024-02-16T09:12:43;15.00;99.90
22337;DHT22;14992;50.844;4.418;2024-02-16T09:15:12;15.10;99.90
22337;DHT22;14992;50.844;4.418;2024-02-16T09:17:42;15.30;99.90
22337;DHT22;14992;50.844;4.418;2024-02-16T09:20:11;15.20;99.90
22337;DHT22;14992;50.844;4.418;2024-02-16T09:22:42;15.20;99.90
22337;DHT22;14992;50.844;4.418;2024-02-16T09:25:13;15.20;99.90
22337;DHT22;14992;50.844;4.418;2024-02-16T09:27:42;15.20;99.90
22337;DHT22;14992;50.844;4.418;2024-02-16T09:30:13;15.20;99.90
22337;DHT22;14992;50.844;4.418;2024-02-16T09:32:42;15.10;99.90
22337;DHT22;14992;50.844;4.418;2024-02-16T09:35:12;15.10;99.90
22337;DHT22;14992;50.844;4.418;2024-02-16T09:37:42;14.90;99.90
22337;DHT22;14992;50.844;4.418;2024-02-16T09:40:12;15.00;99.90
22337;DHT22;14992;50.844;4.418;2024-02-16T09:42:41;14.90;99.90
22337;DHT22;14992;50.844;4.418;2024-02-16T09:45:12;15.00;99.90
22337;DHT22;14992;50.844;4.418;2024-02-16T09:47:44;14.90;99.90
22337;DHT22;14992;50.844;4.418;2024-02-16T09:50:28;15.00;99.90
22337;DHT22;14992;50.844;4.418;2024-02-16T09:52:58;15.00;99.90
22337;DHT22;14992;50.844;4.418;2024-02-16T09:55:32;14.80;99.90
22337;DHT22;14992;50.844;4.418;2024-02-16T09:58:02;14.90;99.90
22337;DHT22;14992;50.844;4.418;2024-02-16T10:00:32;14.90;99.90
22337;DHT22;14992;50.844;4.418;2024-02-16T10:03:02;15.00;99.90
22337;DHT22;14992;50.844;4.418;2024-02-16T10:05:31;15.00;99.90
22337;DHT22;14992;50.844;4.418;2024-02-16T10:08:11;15.00;99.90
22337;DHT22;14992;50.844;4.418;2024-02-16T10:10:40;15.10;99.90
22337;DHT22;14992;50.844;4.418;2024-02-16T10:13:09;15.10;99.90
22337;DHT22;14992;50.844;4.418;2024-02-16T10:15:39;15.20;99.90
22337;DHT22;14992;50.844;4.418;2024-02-16T10:18:08;15.40;99.90
22337;DHT22;14992;50.844;4.418;2024-02-16T10:20:38;15.30;99.90
22337;DHT22;14992;50.844;4.418;2024-02-16T10:23:11;15.20;99.90
22337;DHT22;14992;50.844;4.418;2024-02-16T10:25:40;15.20;99.90
22337;DHT22;14992;50.844;4.418;2024-02-16T10:28:10;15.20;99.90
22337;DHT22;14992;50.844;4.418;2024-02-16T10:30:42;15.20;99.90
22337;DHT22;14992;50.844;4.418;2024-02-16T10:33:12;15.30;99.90
22337;DHT22;14992;50.844;4.418;2024-02-16T10:35:41;15.40;99.90
22337;DHT22;14992;50.844;4.418;2024-02-16T10:38:13;15.50;99.90
22337;DHT22;14992;50.844;4.418;2024-02-16T10:40:43;15.40;99.90
22337;DHT22;14992;50.844;4.418;2024-02-16T10:43:13;15.30;99.90
22337;DHT22;14992;50.844;4.418;2024-02-16T10:45:42;15.30;99.90
22337;DHT22;14992;50.844;4.418;2024-02-16T10:48:12;15.20;99.90
22337;DHT22;14992;50.844;4.418;2024-02-16T10:50:43;15.20;99.90
22337;DHT22;14992;50.844;4.418;2024-02-16T10:53:17;15.30;99.90
22337;DHT22;14992;50.844;4.418;2024-02-16T10:55:47;15.20;99.90
22337;DHT22;14992;50.844;4.418;2024-02-16T10:58:17;15.10;99.90
22337;DHT22;14992;50.844;4.418;2024-02-16T11:00:52;15.20;99.90
22337;DHT22;14992;50.844;4.418;2024-02-16T11:03:23;15.20;99.90
22337;DHT22;14992;50.844;4.418;2024-02-16T11:05:54;15.10;99.90
22337;DHT22;14992;50.844;4.418;2024-02-16T11:08:27;15.00;99.90
22337;DHT22;14992;50.844;4.418;2024-02-16T11:10:58;14.90;99.90
22337;DHT22;14992;50.844;4.418;2024-02-16T11:13:28;14.70;99.90
22337;DHT22;14992;50.844;4.418;2024-02-16T11:16:01;14.70;99.90
22337;DHT22;14992;50.844;4.418;2024-02-16T11:18:31;14.70;99.90
22337;DHT22;14992;50.844;4.418;2024-02-16T11:21:01;14.70;99.90
22337;DHT22;14992;50.844;4.418;2024-02-16T11:23:35;14.70;99.90
22337;DHT22;14992;50.844;4.418;2024-02-16T11:26:04;14.70;99.90
22337;DHT22;14992;50.844;4.418;2024-02-16T11:28:34;14.70;99.90
22337;DHT22;14992;50.844;4.418;2024-02-16T11:31:04;14.70;99.90
22337;DHT22;14992;50.844;4.418;2024-02-16T11:33:35;14.60;99.90
22337;DHT22;14992;50.844;4.418;2024-02-16T11:36:05;14.70;99.90
22337;DHT22;14992;50.844;4.418;2024-02-16T11:38:37;14.70;99.90
22337;DHT22;14992;50.844;4.418;2024-02-16T11:41:07;14.70;99.90
22337;DHT22;14992;50.844;4.418;2024-02-16T11:43:36;14.70;99.90
22337;DHT22;14992;50.844;4.418;2024-02-16T11:46:11;14.60;99.90
22337;DHT22;14992;50.844;4.418;2024-02-16T11:48:41;14.60;99.90
22337;DHT22;14992;50.844;4.418;2024-02-16T11:51:10;14.50;99.90
22337;DHT22;14992;50.844;4.418;2024-02-16T11:53:40;14.60;99.90
22337;DHT22;14992;50.844;4.418;2024-02-16T11:56:10;14.60;99.90
22337;DHT22;14992;50.844;4.418;2024-02-16T11:58:49;14.60;99.90
22337;DHT22;14992;50.844;4.418;2024-02-16T12:01:18;14.70;99.90
22337;DHT22;14992;50.844;4.418;2024-02-16T12:03:49;14.70;99.90
22337;DHT22;14992;50.844;4.418;2024-02-16T12:06:20;14.60;99.90
22337;DHT22;14992;50.844;4.418;2024-02-16T12:08:52;14.60;99.90
22337;DHT22;14992;50.844;4.418;2024-02-16T12:11:23;14.60;99.90
22337;DHT22;14992;50.844;4.418;2024-02-16T12:13:52;14.40;99.90
22337;DHT22;14992;50.844;4.418;2024-02-16T12:16:21;14.30;99.90
22337;DHT22;14992;50.844;4.418;2024-02-16T12:19:03;14.20;99.90
22337;DHT22;14992;50.844;4.418;2024-02-16T12:21:32;14.20;99.90
22337;DHT22;14992;50.844;4.418;2024-02-16T12:24:03;14.20;99.90
22337;DHT22;14992;50.844;4.418;2024-02-16T12:26:32;14.20;99.90
22337;DHT22;14992;50.844;4.418;2024-02-16T12:29:01;14.20;99.90
22337;DHT22;14992;50.844;4.418;2024-02-16T12:31:31;14.20;99.90
22337;DHT22;14992;50.844;4.418;2024-02-16T12:34:00;14.00;99.90
22337;DHT22;14992;50.844;4.418;2024-02-16T12:36:31;13.90;99.90
22337;DHT22;14992;50.844;4.418;2024-02-16T12:39:01;13.90;99.90
22337;DHT22;14992;50.844;4.418;2024-02-16T12:41:31;13.80;99.90
22337;DHT22;14992;50.844;4.418;2024-02-16T12:44:00;13.80;99.90
22337;DHT22;14992;50.844;4.418;2024-02-16T12:46:29;13.80;99.90
22337;DHT22;14992;50.844;4.418;2024-02-16T12:48:58;13.80;99.90
22337;DHT22;14992;50.844;4.418;2024-02-16T12:51:27;13.80;99.90
22337;DHT22;14992;50.844;4.418;2024-02-16T12:53:56;13.80;99.90
22337;DHT22;14992;50.844;4.418;2024-02-16T12:56:29;13.80;99.90
22337;DHT22;14992;50.844;4.418;2024-02-16T12:58:58;13.80;99.90
22337;DHT22;14992;50.844;4.418;2024-02-16T13:01:29;13.80;99.90
22337;DHT22;14992;50.844;4.418;2024-02-16T13:03:58;13.80;99.90
22337;DHT22;14992;50.844;4.418;2024-02-16T13:06:28;13.80;99.90
22337;DHT22;14992;50.844;4.418;2024-02-16T13:08:57;13.90;99.90
22337;DHT22;14992;50.844;4.418;2024-02-16T13:11:26;13.90;99.90
22337;DHT22;14992;50.844;4.418;2024-02-16T13:13:56;13.90;99.90
22337;DHT22;14992;50.844;4.418;2024-02-16T13:16:25;13.90;99.90
22337;DHT22;14992;50.844;4.418;2024-02-16T13:18:54;14.00;99.90
22337;DHT22;14992;50.844;4.418;2024-02-16T13:21:23;14.00;99.90
22337;DHT22;14992;50.844;4.418;2024-02-16T13:23:52;14.00;99.90
22337;DHT22;14992;50.844;4.418;2024-02-16T13:26:21;14.10;99.90
22337;DHT22;14992;50.844;4.418;2024-02-16T13:28:49;14.10;99.90
22337;DHT22;14992;50.844;4.418;2024-02-16T13:31:21;14.20;99.90
22337;DHT22;14992;50.844;4.418;2024-02-16T13:33:52;14.20;99.90
22337;DHT22;14992;50.844;4.418;2024-02-16T13:36:22;14.30;99.90
22337;DHT22;14992;50.844;4.418;2024-02-16T13:38:51;14.20;99.90
22337;DHT22;14992;50.844;4.418;2024-02-16T13:41:20;14.20;99.90
22337;DHT22;14992;50.844;4.418;2024-02-16T13:43:50;14.30;99.90
22337;DHT22;14992;50.844;4.418;2024-02-16T13:46:20;14.40;99.90
22337;DHT22;14992;50.844;4.418;2024-02-16T13:48:49;14.50;99.90
22337;DHT22;14992;50.844;4.418;2024-02-16T13:51:18;14.50;99.90
22337;DHT22;14992;50.844;4.418;2024-02-16T13:53:47;14.50;99.90
22337;DHT22;14992;50.844;4.418;2024-02-16T13:56:16;14.50;99.90
22337;DHT22;14992;50.844;4.418;2024-02-16T13:58:45;14.60;99.90
22337;DHT22;14992;50.844;4.418;2024-02-16T14:01:15;14.80;99.90
22337;DHT22;14992;50.844;4.418;2024-02-16T14:03:45;14.70;99.90
22337;DHT22;14992;50.844;4.418;2024-02-16T14:06:14;14.70;99.90
22337;DHT22;14992;50.844;4.418;2024-02-16T14:08:43;14.70;99.90
22337;DHT22;14992;50.844;4.418;2024-02-16T14:11:12;14.80;99.90
22337;DHT22;14992;50.844;4.418;2024-02-16T14:13:41;15.00;99.90
22337;DHT22;14992;50.844;4.418;2024-02-16T14:16:10;15.00;99.90
22337;DHT22;14992;50.844;4.418;2024-02-16T14:18:39;15.10;99.90
22337;DHT22;14992;50.844;4.418;2024-02-16T14:21:09;15.00;99.90
22337;DHT22;14992;50.844;4.418;2024-02-16T14:23:38;14.90;99.90
22337;DHT22;14992;50.844;4.418;2024-02-16T14:26:07;14.90;99.90
22337;DHT22;14992;50.844;4.418;2024-02-16T14:28:36;14.90;99.90
22337;DHT22;14992;50.844;4.418;2024-02-16T14:31:05;15.00;99.90
22337;DHT22;14992;50.844;4.418;2024-02-16T14:33:34;15.20;99.90
22337;DHT22;14992;50.844;4.418;2024-02-16T14:36:04;15.20;99.90
22337;DHT22;14992;50.844;4.418;2024-02-16T14:38:38;15.20;99.90
22337;DHT22;14992;50.844;4.418;2024-02-16T14:41:06;15.20;99.90
22337;DHT22;14992;50.844;4.418;2024-02-16T14:43:35;15.10;99.90
22337;DHT22;14992;50.844;4.418;2024-02-16T14:46:05;15.30;99.90
22337;DHT22;14992;50.844;4.418;2024-02-16T14:48:34;15.40;99.90
22337;DHT22;14992;50.844;4.418;2024-02-16T14:51:03;15.40;99.90
22337;DHT22;14992;50.844;4.418;2024-02-16T14:53:34;15.30;99.90
22337;DHT22;14992;50.844;4.418;2024-02-16T14:56:05;15.40;99.90
22337;DHT22;14992;50.844;4.418;2024-02-16T14:58:33;15.30;99.90
22337;DHT22;14992;50.844;4.418;2024-02-16T15:01:02;15.40;99.90
22337;DHT22;14992;50.844;4.418;2024-02-16T15:03:31;15.50;99.90
22337;DHT22;14992;50.844;4.418;2024-02-16T15:06:00;15.40;99.90
22337;DHT22;14992;50.844;4.418;2024-02-16T15:08:30;15.50;99.90
22337;DHT22;14992;50.844;4.418;2024-02-16T15:10:59;15.50;99.90
22337;DHT22;14992;50.844;4.418;2024-02-16T15:13:30;15.70;99.90
22337;DHT22;14992;50.844;4.418;2024-02-16T15:15:59;15.80;99.90
22337;DHT22;14992;50.844;4.418;2024-02-16T15:18:28;15.70;99.90
22337;DHT22;14992;50.844;4.418;2024-02-16T15:20:57;15.70;99.90
22337;DHT22;14992;50.844;4.418;2024-02-16T15:23:28;15.60;99.90
22337;DHT22;14992;50.844;4.418;2024-02-16T15:25:57;15.50;99.90
22337;DHT22;14992;50.844;4.418;2024-02-16T15:28:27;15.40;99.90
22337;DHT22;14992;50.844;4.418;2024-02-16T15:30:57;15.40;99.90
22337;DHT22;14992;50.844;4.418;2024-02-16T15:33:27;15.30;99.90
22337;DHT22;14992;50.844;4.418;2024-02-16T15:35:56;15.20;99.90
22337;DHT22;14992;50.844;4.418;2024-02-16T15:38:25;15.20;99.90
22337;DHT22;14992;50.844;4.418;2024-02-16T15:40:54;15.10;99.90
22337;DHT22;14992;50.844;4.418;2024-02-16T15:43:23;15.00;99.90
22337;DHT22;14992;50.844;4.418;2024-02-16T15:45:52;14.90;99.90